createdAt,value
2019-03-22T00:03:03.110Z,102.20
2019-03-22T00:06:11.762Z,100.00
2019-03-22T00:09:20.511Z,95.63
2019-03-22T00:12:29.359Z,94.23
2019-03-22T00:15:37.967Z,87.43
2019-03-22T00:18:46.486Z,92.60
2019-03-22T00:21:55.069Z,95.40
2019-03-22T00:25:03.673Z,89.57
2019-03-22T00:28:12.361Z,88.20
2019-03-22T00:31:21.022Z,87.93
2019-03-22T00:34:29.611Z,87.27
2019-03-22T00:37:38.243Z,86.47
2019-03-22T00:40:46.855Z,84.13
2019-03-22T00:43:55.377Z,91.60
2019-03-22T00:47:03.913Z,86.40
2019-03-22T00:50:13.090Z,80.23
2019-03-22T00:53:21.639Z,78.23
2019-03-22T00:56:30.241Z,72.67
2019-03-22T00:59:38.959Z,64.67
2019-03-22T01:02:47.705Z,66.77
2019-03-22T01:05:56.245Z,62.73
2019-03-22T01:09:05.683Z,57.60
2019-03-22T01:12:14.324Z,58.27
2019-03-22T01:15:22.909Z,57.93
2019-03-22T01:18:31.506Z,52.23
2019-03-22T01:21:41.157Z,51.43
2019-03-22T01:24:49.810Z,50.10
2019-03-22T01:27:59.373Z,49.70
2019-03-22T01:31:07.900Z,47.07
2019-03-22T01:34:16.493Z,46.47
2019-03-22T01:37:25.096Z,49.77
2019-03-22T01:40:34.903Z,46.93
2019-03-22T01:43:45.965Z,49.90
2019-03-22T01:46:54.542Z,46.97
2019-03-22T01:50:03.052Z,51.03
2019-03-22T01:53:11.640Z,47.43
2019-03-22T01:56:20.171Z,45.30
2019-03-22T01:59:28.891Z,45.30
2019-03-22T02:02:37.683Z,45.00
2019-03-22T02:05:46.267Z,45.63
2019-03-22T02:08:54.889Z,46.80
2019-03-22T02:12:03.602Z,49.40
2019-03-22T02:15:15.249Z,50.73
2019-03-22T02:18:23.842Z,51.00
2019-03-22T02:21:32.365Z,56.07
2019-03-22T02:24:41.483Z,52.30
2019-03-22T02:27:50.041Z,53.43
2019-03-22T02:30:58.626Z,63.23
2019-03-22T02:34:07.154Z,57.80
2019-03-22T02:37:15.791Z,57.63
2019-03-22T02:40:24.424Z,59.97
2019-03-22T02:43:33.005Z,63.03
2019-03-22T02:46:41.580Z,62.77
2019-03-22T02:49:50.286Z,70.13
2019-03-22T02:52:58.781Z,68.27
2019-03-22T02:56:07.725Z,69.50
2019-03-22T02:59:16.426Z,63.30
2019-03-22T03:02:25.161Z,65.10
2019-03-22T03:05:33.817Z,74.27
2019-03-22T03:08:44.813Z,64.17
2019-03-22T03:11:53.363Z,62.93
2019-03-22T03:15:02.169Z,62.33
2019-03-22T03:18:10.827Z,63.53
2019-03-22T03:21:19.408Z,67.50
2019-03-22T03:24:27.977Z,65.97
2019-03-22T03:27:36.465Z,63.87
2019-03-22T03:30:45.002Z,62.17
2019-03-22T03:33:53.498Z,60.87
2019-03-22T03:37:02.027Z,64.47
2019-03-22T03:40:11.482Z,63.60
2019-03-22T03:43:20.076Z,77.67
2019-03-22T03:46:28.560Z,78.37
2019-03-22T03:49:37.076Z,84.57
2019-03-22T03:52:45.568Z,80.27
2019-03-22T03:55:54.098Z,80.40
2019-03-22T03:59:02.604Z,66.87
2019-03-22T04:02:11.137Z,61.97
2019-03-22T04:05:19.673Z,64.57
2019-03-22T04:08:28.368Z,63.93
2019-03-22T04:11:36.896Z,71.63
2019-03-22T04:14:45.510Z,68.60
2019-03-22T04:17:54.030Z,77.43
2019-03-22T04:21:02.573Z,75.40
2019-03-22T04:24:11.183Z,59.57
2019-03-22T04:27:19.719Z,52.17
2019-03-22T04:30:28.279Z,57.70
2019-03-22T04:33:36.747Z,59.03
2019-03-22T04:36:45.306Z,78.90
2019-03-22T04:39:54.405Z,73.30
2019-03-22T04:43:02.961Z,60.73
2019-03-22T04:46:14.222Z,56.57
2019-03-22T04:49:24.027Z,52.97
2019-03-22T04:52:32.644Z,53.30
2019-03-22T04:55:43.333Z,57.30
2019-03-22T04:58:53.832Z,53.30
2019-03-22T05:02:04.099Z,52.30
2019-03-22T05:05:13.904Z,53.43
2019-03-22T05:08:23.390Z,53.07
2019-03-22T05:11:32.290Z,54.30
2019-03-22T05:14:43.575Z,51.10
2019-03-22T05:17:52.586Z,54.37
2019-03-22T05:21:01.821Z,56.47
2019-03-22T05:24:10.778Z,60.53
2019-03-22T05:27:20.358Z,62.37
2019-03-22T05:31:31.476Z,67.93
2019-03-22T05:34:40.148Z,73.60
2019-03-22T05:37:48.713Z,72.93
2019-03-22T05:40:57.218Z,67.03
2019-03-22T05:44:06.102Z,71.87
2019-03-22T05:47:14.692Z,68.07
2019-03-22T05:50:23.276Z,70.23
2019-03-22T05:53:31.799Z,74.57
2019-03-22T05:56:40.393Z,75.90
2019-03-22T05:59:48.980Z,69.27
2019-03-22T06:02:57.859Z,64.40
2019-03-22T06:06:07.524Z,69.10
2019-03-22T06:09:16.058Z,61.23
2019-03-22T06:12:24.693Z,60.50
2019-03-22T06:15:33.287Z,57.07
2019-03-22T06:18:42.068Z,58.07
2019-03-22T06:21:50.675Z,72.33
2019-03-22T06:24:59.401Z,58.13
2019-03-22T06:28:07.962Z,56.60
2019-03-22T06:31:16.477Z,59.10
2019-03-22T06:34:25.509Z,60.03
2019-03-22T06:37:34.003Z,57.40
2019-03-22T06:40:42.675Z,62.33
2019-03-22T06:43:51.193Z,78.97
2019-03-22T06:46:59.697Z,64.23
2019-03-22T06:50:08.799Z,83.50
2019-03-22T06:53:17.342Z,86.90
2019-03-22T06:56:25.844Z,82.67
2019-03-22T06:59:34.450Z,70.70
2019-03-22T07:02:43.307Z,68.77
2019-03-22T07:05:52.242Z,69.77
2019-03-22T07:09:01.060Z,86.20
2019-03-22T07:12:09.806Z,76.67
2019-03-22T07:15:18.366Z,76.97
2019-03-22T07:18:26.989Z,84.73
2019-03-22T07:21:35.525Z,95.10
2019-03-22T07:24:44.076Z,87.93
2019-03-22T07:27:52.653Z,89.47
2019-03-22T07:31:01.296Z,93.03
2019-03-22T07:34:09.867Z,95.87
2019-03-22T07:37:18.444Z,93.60
2019-03-22T07:40:26.981Z,90.83
2019-03-22T07:43:35.478Z,87.87
2019-03-22T07:46:43.970Z,81.20
2019-03-22T07:49:52.727Z,85.00
2019-03-22T07:53:01.283Z,83.10
2019-03-22T07:56:09.836Z,87.70
2019-03-22T07:59:19.425Z,80.13
2019-03-22T08:02:27.938Z,91.60
2019-03-22T08:05:36.542Z,83.77
2019-03-22T08:08:45.158Z,79.00
2019-03-22T08:11:53.672Z,77.30
2019-03-22T08:15:02.250Z,75.80
2019-03-22T08:18:11.834Z,74.60
2019-03-22T08:21:20.544Z,71.77
2019-03-22T08:24:29.225Z,53.40
2019-03-22T08:27:37.733Z,52.20
2019-03-22T08:30:46.217Z,49.30
2019-03-22T08:33:54.749Z,53.27
2019-03-22T08:37:03.317Z,47.27
2019-03-22T08:40:11.999Z,46.20
2019-03-22T08:43:20.704Z,43.93
2019-03-22T08:46:29.210Z,38.37
2019-03-22T08:49:37.799Z,39.07
2019-03-22T08:52:46.571Z,36.30
2019-03-22T08:55:56.255Z,31.53
2019-03-22T08:59:04.675Z,33.70
2019-03-22T09:02:13.217Z,32.43
2019-03-22T09:05:21.705Z,33.43
2019-03-22T09:08:31.723Z,31.87
2019-03-22T09:11:40.365Z,30.83
2019-03-22T09:14:48.911Z,33.97
2019-03-22T09:17:57.625Z,38.00
2019-03-22T09:21:06.333Z,43.57
2019-03-22T09:24:14.929Z,34.27
2019-03-22T09:27:23.554Z,35.43
2019-03-22T09:30:32.132Z,34.73
2019-03-22T09:33:40.811Z,36.13
2019-03-22T09:36:49.375Z,37.17
2019-03-22T09:39:58.000Z,37.00
2019-03-22T09:43:06.579Z,43.00
2019-03-22T09:46:15.762Z,37.73
2019-03-22T09:49:24.309Z,34.83
2019-03-22T09:52:33.779Z,29.67
2019-03-22T09:55:42.506Z,32.40
2019-03-22T09:58:51.129Z,30.33
2019-03-22T10:01:59.643Z,40.17
2019-03-22T10:05:09.245Z,38.43
2019-03-22T10:08:19.410Z,33.50
2019-03-22T10:11:28.045Z,31.40
2019-03-22T10:14:37.898Z,34.10
2019-03-22T10:17:46.562Z,37.47
2019-03-22T10:20:55.074Z,39.00
2019-03-22T10:24:03.692Z,37.80
2019-03-22T10:27:12.328Z,46.60
2019-03-22T10:30:21.070Z,41.27
2019-03-22T10:33:29.779Z,40.57
2019-03-22T10:36:38.602Z,41.13
2019-03-22T10:39:48.157Z,39.60
2019-03-22T10:42:57.412Z,33.67
2019-03-22T10:46:08.095Z,39.00
2019-03-22T10:49:17.062Z,36.80
2019-03-22T10:52:25.757Z,39.47
2019-03-22T10:55:35.699Z,39.60
2019-03-22T10:58:44.347Z,43.23
2019-03-22T11:02:03.087Z,35.93
2019-03-22T11:05:03.102Z,36.60
2019-03-22T11:08:11.736Z,58.67
2019-03-22T11:11:20.429Z,48.70
2019-03-22T11:14:28.960Z,43.33
2019-03-22T11:17:38.115Z,40.37
2019-03-22T11:20:46.776Z,45.20
2019-03-22T11:23:56.516Z,47.13
2019-03-22T11:27:05.403Z,48.00
2019-03-22T11:30:16.622Z,46.80
2019-03-22T11:33:26.366Z,43.47
2019-03-22T11:36:36.758Z,37.97
2019-03-22T11:39:45.688Z,44.30
2019-03-22T11:42:54.200Z,46.83
2019-03-22T11:46:03.074Z,47.23
2019-03-22T11:49:11.840Z,42.13
2019-03-22T11:52:20.621Z,45.10
2019-03-22T11:55:29.133Z,52.53
2019-03-22T11:58:37.791Z,45.73
2019-03-22T12:01:46.646Z,44.60
2019-03-22T12:04:55.272Z,55.00
2019-03-22T12:08:03.983Z,41.70
2019-03-22T12:11:12.811Z,46.27
2019-03-22T12:14:21.735Z,35.30
2019-03-22T12:17:30.469Z,38.17
2019-03-22T12:20:38.935Z,38.97
2019-03-22T12:23:47.454Z,38.10
2019-03-22T12:26:56.282Z,34.97
2019-03-22T12:30:05.282Z,35.27
2019-03-22T12:33:13.973Z,39.93
2019-03-22T12:36:22.587Z,39.17
2019-03-22T12:39:31.102Z,39.07
2019-03-22T12:42:40.285Z,41.73
2019-03-22T12:45:49.013Z,41.80
2019-03-22T12:48:57.689Z,42.10
2019-03-22T12:52:06.426Z,42.13
2019-03-22T12:55:15.448Z,39.67
2019-03-22T12:58:23.989Z,42.30
2019-03-22T13:01:32.485Z,48.57
2019-03-22T13:04:41.005Z,47.23
2019-03-22T13:07:49.773Z,47.30
2019-03-22T13:10:58.261Z,41.20
2019-03-22T13:14:06.933Z,40.50
2019-03-22T13:17:15.521Z,40.87
2019-03-22T13:20:25.590Z,42.83
2019-03-22T13:23:34.198Z,42.20
2019-03-22T13:26:42.853Z,45.67
2019-03-22T13:29:51.477Z,41.70
2019-03-22T13:33:00.247Z,45.13
2019-03-22T13:36:09.125Z,45.00
2019-03-22T13:39:17.674Z,87.87
2019-03-22T13:42:26.328Z,201.17
2019-03-22T13:45:34.845Z,41.63
2019-03-22T13:48:43.446Z,39.13
2019-03-22T13:51:51.973Z,53.17
2019-03-22T13:55:00.519Z,85.00
2019-03-22T13:58:09.166Z,46.33
2019-03-22T14:01:17.682Z,43.97
2019-03-22T14:04:26.357Z,44.07
2019-03-22T14:07:34.857Z,42.27
2019-03-22T14:10:43.575Z,42.37
2019-03-22T14:13:52.074Z,44.60
2019-03-22T14:17:00.866Z,53.47
2019-03-22T14:20:11.497Z,51.80
2019-03-22T14:23:19.816Z,56.00
2019-03-22T14:26:28.492Z,61.00
2019-03-22T14:29:36.962Z,61.60
2019-03-22T14:32:45.607Z,80.87
2019-03-22T14:35:54.163Z,65.67
2019-03-22T14:39:02.912Z,78.30
2019-03-22T14:42:12.004Z,76.73
2019-03-22T14:45:20.559Z,54.70
2019-03-22T14:48:29.078Z,54.70
2019-03-22T14:51:37.839Z,57.43
2019-03-22T14:54:46.381Z,55.30
2019-03-22T14:57:55.059Z,53.83
2019-03-22T15:01:03.764Z,61.60
2019-03-22T15:04:12.315Z,69.00
2019-03-22T15:07:20.854Z,65.13
2019-03-22T15:10:30.088Z,81.80
2019-03-22T15:13:50.541Z,75.40
2019-03-22T15:17:27.274Z,68.90
2019-03-22T15:21:09.693Z,57.07
2019-03-22T15:24:37.487Z,59.33
2019-03-22T15:28:04.971Z,56.67
2019-03-22T15:31:41.761Z,53.30
2019-03-22T15:35:21.993Z,57.77
2019-03-22T15:39:01.490Z,53.73
2019-03-22T15:42:11.841Z,53.10
2019-03-22T15:45:20.429Z,57.40
2019-03-22T15:48:28.981Z,58.53
2019-03-22T15:51:37.507Z,62.00
2019-03-22T15:54:46.119Z,56.40
2019-03-22T15:57:55.968Z,66.67
2019-03-22T16:01:04.935Z,73.90
2019-03-22T16:04:13.601Z,73.57
2019-03-22T16:07:22.149Z,73.78
2019-03-22T16:10:31.110Z,82.47
2019-03-22T16:13:39.719Z,86.83
2019-03-22T16:16:48.217Z,93.10
2019-03-22T16:19:56.845Z,67.77
2019-03-22T16:23:05.493Z,60.37
2019-03-22T16:26:14.034Z,54.57
2019-03-22T16:29:22.651Z,55.50
2019-03-22T16:32:31.202Z,63.87
2019-03-22T16:35:39.835Z,74.93
2019-03-22T16:38:48.497Z,81.03
2019-03-22T16:41:57.401Z,86.50
2019-03-22T16:45:07.396Z,73.70
2019-03-22T16:48:16.123Z,72.33
2019-03-22T16:51:24.678Z,70.43
2019-03-22T16:54:33.277Z,77.00
2019-03-22T16:57:41.936Z,89.67
2019-03-22T17:00:50.722Z,101.13
2019-03-22T17:04:04.486Z,70.30
2019-03-22T17:07:09.881Z,69.73
2019-03-22T17:10:18.439Z,54.87
2019-03-22T17:13:26.993Z,56.57
2019-03-22T17:16:35.549Z,62.07
2019-03-22T17:19:44.983Z,62.60
2019-03-22T17:22:53.582Z,61.40
2019-03-22T17:26:02.200Z,70.90
2019-03-22T17:29:10.807Z,69.20
2019-03-22T17:32:19.368Z,78.23
2019-03-22T17:35:27.995Z,80.80
2019-03-22T17:38:36.671Z,87.30
2019-03-22T17:41:45.276Z,86.50
2019-03-22T17:44:54.004Z,94.17
2019-03-22T17:48:02.564Z,93.30
2019-03-22T17:51:11.208Z,91.53
2019-03-22T17:54:19.770Z,90.03
2019-03-22T17:57:28.489Z,92.53
2019-03-22T18:00:38.326Z,96.97
2019-03-22T18:03:46.918Z,96.37
2019-03-22T18:06:56.475Z,85.50
2019-03-22T18:10:05.581Z,91.87
2019-03-22T18:13:14.232Z,114.75
2019-03-22T18:16:24.450Z,124.80
2019-03-22T18:19:33.053Z,113.43
2019-03-22T18:22:41.584Z,106.17
2019-03-22T18:25:51.482Z,98.90
2019-03-22T18:29:00.522Z,104.00
2019-03-22T18:32:10.184Z,96.50
2019-03-22T18:35:18.823Z,111.40
2019-03-22T18:38:27.606Z,106.57
2019-03-22T18:41:36.110Z,94.57
2019-03-22T18:44:44.784Z,105.27
2019-03-22T18:47:53.362Z,148.03
2019-03-22T18:51:02.006Z,147.77
2019-03-22T18:54:10.581Z,137.30
2019-03-22T18:57:20.082Z,109.83
2019-03-22T19:00:29.693Z,106.57
2019-03-22T19:03:38.352Z,114.87
2019-03-22T19:06:47.036Z,119.50
2019-03-22T19:09:57.346Z,107.73
2019-03-22T19:13:07.865Z,114.83
2019-03-22T19:16:16.676Z,136.07
2019-03-22T19:19:26.024Z,151.90
2019-03-22T19:22:34.575Z,122.47
2019-03-22T19:25:43.269Z,149.73
2019-03-22T19:28:51.808Z,158.67
2019-03-22T19:32:00.518Z,160.53
2019-03-22T19:35:09.426Z,104.30
2019-03-22T19:38:18.058Z,102.87
2019-03-22T19:41:26.667Z,104.70
2019-03-22T19:44:35.442Z,93.33
2019-03-22T19:47:44.102Z,95.27
2019-03-22T19:50:52.655Z,98.87
2019-03-22T19:54:01.186Z,124.23
2019-03-22T19:57:10.080Z,102.00
2019-03-22T20:00:19.460Z,98.25
2019-03-22T20:03:28.788Z,111.13
2019-03-22T20:06:37.379Z,116.33
2019-03-22T20:09:46.048Z,132.30
2019-03-22T20:12:56.469Z,134.07
2019-03-22T20:16:06.168Z,131.27
2019-03-22T20:19:16.734Z,117.93
2019-03-22T20:22:25.275Z,113.50
2019-03-22T20:25:33.762Z,125.07
2019-03-22T20:28:42.400Z,131.47
2019-03-22T20:31:51.258Z,138.40
2019-03-22T20:34:59.917Z,130.67
2019-03-22T20:38:08.530Z,122.27
2019-03-22T20:41:17.288Z,140.77
2019-03-22T20:44:33.633Z,154.20
2019-03-22T20:47:36.090Z,138.67
2019-03-22T20:50:44.759Z,144.97
2019-03-22T20:53:53.396Z,129.00
2019-03-22T20:57:01.964Z,139.90
2019-03-22T21:00:11.068Z,177.83
2019-03-22T21:03:19.940Z,179.53
2019-03-22T21:06:28.491Z,198.27
2019-03-22T21:09:37.100Z,194.00
2019-03-22T21:12:45.802Z,148.07
2019-03-22T21:15:55.973Z,144.20
2019-03-22T21:19:05.536Z,165.43
2019-03-22T21:22:14.209Z,149.87
2019-03-22T21:25:22.923Z,143.53
2019-03-22T21:28:31.475Z,119.50
2019-03-22T21:31:40.075Z,131.87
2019-03-22T21:34:48.621Z,158.93
2019-03-22T21:37:57.187Z,133.60
2019-03-22T21:41:05.786Z,135.83
2019-03-22T21:44:14.261Z,140.50
2019-03-22T21:47:22.820Z,125.87
2019-03-22T21:50:31.421Z,131.10
2019-03-22T21:53:39.962Z,125.83
2019-03-22T21:56:48.494Z,123.77
2019-03-22T21:59:57.036Z,131.53
2019-03-22T22:03:05.630Z,131.50
2019-03-22T22:06:15.694Z,132.57
2019-03-22T22:09:24.289Z,135.30
2019-03-22T22:12:32.831Z,137.93
2019-03-22T22:15:41.426Z,137.60
2019-03-22T22:18:50.134Z,133.60
2019-03-22T22:21:58.780Z,163.97
2019-03-22T22:25:07.557Z,149.07
2019-03-22T22:28:16.162Z,152.70
2019-03-22T22:31:24.809Z,152.27
2019-03-22T22:34:34.938Z,133.23
2019-03-22T22:37:43.586Z,136.63
2019-03-22T22:40:53.330Z,127.90
2019-03-22T22:44:01.886Z,128.50
2019-03-22T22:47:10.496Z,117.90
2019-03-22T22:50:19.074Z,133.07
2019-03-22T22:53:27.794Z,126.50
2019-03-22T22:56:36.314Z,120.10
2019-03-22T22:59:44.825Z,117.17
2019-03-22T23:02:53.348Z,127.77
2019-03-22T23:06:09.318Z,102.20
2019-03-22T23:09:12.167Z,93.33
2019-03-22T23:12:20.773Z,100.33
2019-03-22T23:15:29.325Z,94.37
2019-03-22T23:18:37.924Z,84.67
2019-03-22T23:21:46.474Z,86.43
2019-03-22T23:24:55.013Z,94.87
2019-03-22T23:28:03.573Z,93.77
2019-03-22T23:31:12.325Z,92.93
2019-03-22T23:34:21.019Z,94.97
2019-03-22T23:37:29.606Z,79.70
2019-03-22T23:40:38.342Z,74.97
2019-03-22T23:43:46.890Z,85.10
2019-03-22T23:46:55.408Z,85.10
2019-03-22T23:50:03.888Z,75.70
2019-03-22T23:53:12.412Z,77.67
2019-03-22T23:56:21.002Z,83.00
2019-03-22T23:59:29.528Z,82.10
